Time;durP1;ratioP1;P1;durP2;ratioP2;P2;SDS_P1;SDS_P2;PMS_P1;PMS_P2;Temp;Humidity;BMP_temperature;BMP_pressure;BME280_temperature;BME280_humidity;BME280_pressure;Samples;Min_cycle;Max_cycle;Signal;HPM_P1;HPM_P2
2022/07/17 00:01:05;;;;;;;8.70;5.20;;;14.20;95.40;;;;;;5119590;28;20479;-85
2022/07/17 00:03:33;;;;;;;6.77;4.77;;;14.10;95.50;;;;;;5120900;28;20892;-83
2022/07/17 00:06:02;;;;;;;6.73;4.60;;;14.10;95.60;;;;;;5120637;28;20451;-83
2022/07/17 00:08:31;;;;;;;7.53;4.23;;;14.00;95.60;;;;;;5119491;28;20960;-83
2022/07/17 00:11:01;;;;;;;6.50;3.73;;;14.00;95.70;;;;;;5120660;28;20451;-83
2022/07/17 00:13:31;;;;;;;5.70;3.73;;;14.00;95.80;;;;;;5120023;28;20459;-84
2022/07/17 00:16:00;;;;;;;8.20;3.70;;;14.00;96.10;;;;;;5119506;28;20472;-82
2022/07/17 00:18:28;;;;;;;3.70;3.00;;;13.90;95.80;;;;;;5117980;28;20477;-85
2022/07/17 00:20:57;;;;;;;7.63;5.00;;;13.90;95.80;;;;;;5118693;28;20453;-83
2022/07/17 00:23:25;;;;;;;8.87;4.27;;;13.90;95.90;;;;;;5120421;28;20462;-85
2022/07/17 00:25:53;;;;;;;6.00;3.90;;;13.80;95.90;;;;;;5119380;28;20444;-85
2022/07/17 00:28:22;;;;;;;8.90;4.50;;;13.80;96.00;;;;;;5119418;28;20485;-83
2022/07/17 00:30:51;;;;;;;6.57;4.13;;;13.70;96.10;;;;;;5119763;28;20472;-82
2022/07/17 00:33:20;;;;;;;9.03;4.63;;;13.70;96.20;;;;;;5124603;28;21100;-84
2022/07/17 00:35:48;;;;;;;7.43;4.73;;;13.70;96.30;;;;;;5123663;28;20512;-84
2022/07/17 00:38:17;;;;;;;5.80;3.70;;;13.60;96.30;;;;;;5119812;28;20468;-84
2022/07/17 00:40:46;;;;;;;4.87;4.00;;;13.60;96.40;;;;;;5116207;28;20575;-84
2022/07/17 00:43:14;;;;;;;9.53;3.97;;;13.60;96.50;;;;;;5116828;28;20852;-84
2022/07/17 00:45:43;;;;;;;6.87;3.60;;;13.50;96.60;;;;;;5118242;28;20436;-84
2022/07/17 00:48:13;;;;;;;12.40;4.87;;;13.50;96.60;;;;;;5118061;28;20498;-85
2022/07/17 00:50:42;;;;;;;13.00;3.93;;;13.50;96.70;;;;;;5118087;28;20448;-85
2022/07/17 00:53:11;;;;;;;6.80;3.43;;;13.40;96.80;;;;;;5117455;28;20478;-83
2022/07/17 00:55:41;;;;;;;6.07;4.10;;;13.40;96.90;;;;;;5152761;27;20454;-83
2022/07/17 00:58:13;;;;;;;10.57;3.80;;;13.40;97.00;;;;;;5118391;28;20539;-84
2022/07/17 01:00:42;;;;;;;4.50;3.23;;;13.30;97.00;;;;;;5117892;28;20439;-84
2022/07/17 01:03:10;;;;;;;7.47;3.67;;;13.30;97.10;;;;;;5117984;28;20991;-83
2022/07/17 01:05:40;;;;;;;6.47;3.97;;;13.30;97.20;;;;;;5118180;28;20482;-83
2022/07/17 01:08:09;;;;;;;4.50;3.60;;;13.30;97.30;;;;;;5117024;28;20455;-83
2022/07/17 01:10:38;;;;;;;5.00;3.90;;;13.20;97.30;;;;;;5118267;28;20474;-85
2022/07/17 01:13:06;;;;;;;6.80;3.60;;;13.20;97.40;;;;;;5153001;27;20463;-84
2022/07/17 01:15:37;;;;;;;4.50;3.80;;;13.20;97.50;;;;;;5118492;28;20496;-84
2022/07/17 01:18:08;;;;;;;5.43;3.90;;;13.10;97.60;;;;;;5118695;28;20436;-84
2022/07/17 01:20:37;;;;;;;7.77;3.70;;;13.10;97.60;;;;;;5118157;28;20501;-84
2022/07/17 01:23:07;;;;;;;8.77;3.93;;;13.10;97.70;;;;;;5121911;28;20482;-83
2022/07/17 01:25:36;;;;;;;5.83;3.97;;;13.10;97.80;;;;;;5123988;28;20415;-84
2022/07/17 01:28:05;;;;;;;7.03;3.80;;;13.10;97.80;;;;;;5122339;28;20443;-85
2022/07/17 01:30:34;;;;;;;5.97;3.90;;;13.10;97.90;;;;;;5122387;28;20483;-85
2022/07/17 01:33:04;;;;;;;4.23;3.60;;;13.10;97.90;;;;;;5122218;28;20463;-84
2022/07/17 01:35:33;;;;;;;5.73;3.70;;;13.00;98.00;;;;;;5122195;28;20439;-84
2022/07/17 01:38:01;;;;;;;8.70;3.83;;;13.00;98.00;;;;;;5122453;28;20856;-85
2022/07/17 01:40:31;;;;;;;7.17;3.23;;;13.00;98.00;;;;;;5121907;28;20444;-85
2022/07/17 01:42:59;;;;;;;6.47;3.67;;;13.00;98.10;;;;;;5122842;28;20475;-84
2022/07/17 01:45:28;;;;;;;5.33;4.20;;;13.00;98.10;;;;;;5122136;28;20474;-83
2022/07/17 01:47:56;;;;;;;7.50;3.80;;;13.00;98.20;;;;;;5122116;28;20479;-84
2022/07/17 01:50:24;;;;;;;6.83;3.40;;;13.00;98.20;;;;;;5121790;28;20487;-84
2022/07/17 01:52:53;;;;;;;7.17;3.40;;;13.00;98.30;;;;;;5122100;28;20491;-83
2022/07/17 01:55:21;;;;;;;7.23;3.53;;;13.00;98.30;;;;;;5122552;28;20502;-83
2022/07/17 01:57:51;;;;;;;5.90;3.33;;;12.90;98.20;;;;;;5122938;28;20496;-83
2022/07/17 02:00:22;;;;;;;5.87;3.87;;;13.00;98.30;;;;;;5123451;28;20508;-83
2022/07/17 02:02:51;;;;;;;7.80;3.90;;;12.90;98.30;;;;;;5124267;28;20459;-83
2022/07/17 02:05:19;;;;;;;6.57;3.47;;;12.90;98.30;;;;;;5121481;28;20859;-81
2022/07/17 02:07:47;;;;;;;6.37;3.23;;;12.90;98.40;;;;;;5121710;28;20447;-82
2022/07/17 02:10:16;;;;;;;6.70;3.50;;;12.90;98.40;;;;;;5121066;28;20450;-84
2022/07/17 02:12:44;;;;;;;5.10;3.63;;;12.80;98.40;;;;;;5120924;28;20482;-82
2022/07/17 02:15:14;;;;;;;5.20;3.63;;;12.80;98.70;;;;;;5121215;28;20794;-83
2022/07/17 02:17:43;;;;;;;5.60;4.70;;;12.80;98.40;;;;;;5121029;28;20443;-82
2022/07/17 02:20:12;;;;;;;7.13;4.60;;;12.80;98.40;;;;;;5120349;28;20486;-83
2022/07/17 02:22:41;;;;;;;7.63;4.47;;;12.80;98.50;;;;;;5155559;27;20475;-85
2022/07/17 02:25:10;;;;;;;5.30;4.07;;;12.70;98.60;;;;;;5121160;28;20859;-84
2022/07/17 02:27:39;;;;;;;6.60;4.40;;;12.70;98.70;;;;;;5120532;28;20944;-83
2022/07/17 02:30:10;;;;;;;6.70;4.70;;;12.70;98.70;;;;;;5120598;28;20444;-85
2022/07/17 02:32:40;;;;;;;9.00;4.50;;;12.70;98.90;;;;;;5120900;28;20497;-85
2022/07/17 02:35:10;;;;;;;6.90;4.33;;;12.70;98.90;;;;;;5124149;28;20460;-84
2022/07/17 02:37:39;;;;;;;8.83;4.67;;;12.60;99.00;;;;;;5123791;28;20443;-84
2022/07/17 02:40:12;;;;;;;7.50;4.60;;;12.60;99.00;;;;;;5120785;28;20451;-85
2022/07/17 02:42:40;;;;;;;6.23;4.63;;;12.60;99.10;;;;;;5119872;28;20467;-84
2022/07/17 02:45:10;;;;;;;7.13;4.57;;;12.60;99.20;;;;;;5121138;28;20454;-84
2022/07/17 02:47:40;;;;;;;6.10;4.60;;;12.50;99.20;;;;;;5121189;28;20439;-83
2022/07/17 02:50:10;;;;;;;6.77;4.40;;;12.50;99.30;;;;;;5119932;28;20870;-85
2022/07/17 02:52:38;;;;;;;7.87;5.47;;;12.50;99.40;;;;;;5119475;28;20506;-85
2022/07/17 02:55:08;;;;;;;7.37;5.00;;;12.50;99.50;;;;;;5121617;28;20463;-82
2022/07/17 02:57:36;;;;;;;6.00;4.13;;;12.50;99.50;;;;;;5120358;28;20438;-84
2022/07/17 03:00:08;;;;;;;4.50;4.03;;;12.50;99.60;;;;;;5120788;28;20486;-84
2022/07/17 03:02:37;;;;;;;8.70;4.73;;;12.40;99.70;;;;;;5122038;28;20462;-84
2022/07/17 03:05:07;;;;;;;6.43;4.80;;;12.40;99.70;;;;;;5120320;28;20515;-85
2022/07/17 03:07:36;;;;;;;6.27;4.50;;;12.40;99.80;;;;;;5119688;28;21005;-84
2022/07/17 03:10:05;;;;;;;5.83;5.00;;;12.40;99.90;;;;;;5120479;28;20471;-85
2022/07/17 03:12:34;;;;;;;6.80;4.13;;;12.40;99.90;;;;;;5120157;28;20486;-85
2022/07/17 03:15:02;;;;;;;5.37;4.30;;;12.40;99.90;;;;;;5120562;28;20535;-85
2022/07/17 03:17:31;;;;;;;5.20;4.20;;;12.40;99.90;;;;;;5121911;28;20482;-84
2022/07/17 03:19:59;;;;;;;8.40;4.90;;;12.40;99.90;;;;;;5119569;28;20516;-81
2022/07/17 03:22:29;;;;;;;8.33;5.87;;;12.40;99.90;;;;;;5119362;28;20481;-82
2022/07/17 03:24:58;;;;;;;6.80;5.90;;;12.30;99.90;;;;;;5120084;28;20808;-84
2022/07/17 03:27:26;;;;;;;9.10;7.20;;;12.40;99.90;;;;;;5119463;28;20471;-85
2022/07/17 03:29:55;;;;;;;12.00;7.47;;;12.40;99.90;;;;;;5119842;28;20477;-83
2022/07/17 03:32:23;;;;;;;8.27;5.70;;;12.40;99.90;;;;;;5120098;28;20550;-83
2022/07/17 03:34:51;;;;;;;6.60;4.20;;;12.30;99.90;;;;;;5118949;28;20467;-83
2022/07/17 03:37:20;;;;;;;6.70;4.53;;;12.30;99.90;;;;;;5120841;28;20944;-84
2022/07/17 03:39:49;;;;;;;6.43;4.33;;;12.30;99.90;;;;;;5120836;28;20450;-85
2022/07/17 03:42:17;;;;;;;6.43;4.40;;;12.30;99.90;;;;;;5122914;28;20458;-83
2022/07/17 03:44:46;;;;;;;6.90;4.57;;;12.30;99.90;;;;;;5138004;28;20463;-84
2022/07/17 03:47:14;;;;;;;7.47;4.73;;;12.30;99.90;;;;;;5139589;28;20510;-83
2022/07/17 03:49:42;;;;;;;9.40;5.23;;;12.30;99.90;;;;;;5138709;28;20439;-83
2022/07/17 03:52:10;;;;;;;5.43;3.73;;;12.30;99.90;;;;;;5139506;28;20447;-83
2022/07/17 03:54:39;;;;;;;6.03;4.20;;;12.30;99.90;;;;;;5139633;28;20533;-81
2022/07/17 03:57:08;;;;;;;8.80;4.17;;;12.30;99.90;;;;;;5139807;28;20420;-83
2022/07/17 03:59:36;;;;;;;5.60;3.93;;;12.20;99.90;;;;;;5138766;28;20419;-84
2022/07/17 04:02:05;;;;;;;6.50;4.47;;;12.20;99.90;;;;;;5133334;28;20474;-83
2022/07/17 04:04:33;;;;;;;5.60;4.30;;;12.20;99.90;;;;;;5127672;28;20444;-85
2022/07/17 04:07:02;;;;;;;4.93;4.07;;;12.30;99.90;;;;;;5137079;28;20446;-83
2022/07/17 04:09:30;;;;;;;6.87;3.97;;;12.20;99.90;;;;;;5138869;28;20427;-81
2022/07/17 04:11:58;;;;;;;6.93;4.50;;;12.20;99.90;;;;;;5138720;28;20473;-82
2022/07/17 04:14:28;;;;;;;5.90;4.10;;;12.20;99.90;;;;;;5138544;28;20438;-83
2022/07/17 04:17:00;;;;;;;5.90;4.40;;;12.20;99.90;;;;;;5173219;27;20439;-83
2022/07/17 04:19:29;;;;;;;5.43;4.73;;;12.30;99.90;;;;;;5138433;28;20431;-84
2022/07/17 04:21:57;;;;;;;8.40;5.70;;;12.30;99.90;;;;;;5130755;28;20472;-83
2022/07/17 04:24:25;;;;;;;6.20;4.50;;;12.30;99.90;;;;;;5135805;28;20450;-82
2022/07/17 04:26:53;;;;;;;5.80;4.50;;;12.30;99.90;;;;;;5130642;28;20496;-84
2022/07/17 04:29:22;;;;;;;5.33;4.43;;;12.30;99.90;;;;;;5128144;28;20457;-83
2022/07/17 04:31:51;;;;;;;6.47;4.67;;;12.30;99.90;;;;;;5127585;28;20460;-84
2022/07/17 04:34:20;;;;;;;6.17;5.10;;;12.30;99.90;;;;;;5128077;28;20447;-84
2022/07/17 04:36:48;;;;;;;9.93;5.37;;;12.30;99.90;;;;;;5135012;28;20834;-84
2022/07/17 04:39:16;;;;;;;6.40;5.00;;;12.30;99.90;;;;;;5128084;28;20530;-83
2022/07/17 04:41:44;;;;;;;9.30;4.87;;;12.30;99.90;;;;;;5122783;28;20563;-83
2022/07/17 04:44:13;;;;;;;6.10;4.40;;;12.30;99.90;;;;;;5121823;28;20455;-84
2022/07/17 04:46:41;;;;;;;6.17;4.97;;;12.40;99.90;;;;;;5121257;28;20450;-83
2022/07/17 04:49:11;;;;;;;9.33;5.47;;;12.40;99.90;;;;;;5154133;27;20862;-82
2022/07/17 04:51:39;;;;;;;9.30;5.67;;;12.50;99.90;;;;;;5118320;28;20463;-83
2022/07/17 04:54:07;;;;;;;8.27;5.40;;;12.40;99.90;;;;;;5118675;28;20917;-83
2022/07/17 04:56:35;;;;;;;7.60;5.57;;;12.50;99.90;;;;;;5120274;28;20523;-83
2022/07/17 04:59:04;;;;;;;6.00;4.90;;;12.50;99.90;;;;;;5123137;28;20791;-84
2022/07/17 05:01:33;;;;;;;7.13;5.50;;;12.50;99.90;;;;;;5123828;28;20510;-84
2022/07/17 05:04:04;;;;;;;8.93;5.20;;;12.60;99.90;;;;;;5123881;28;20449;-83
2022/07/17 05:06:33;;;;;;;7.23;5.10;;;12.60;99.90;;;;;;5123798;28;20837;-85
2022/07/17 05:09:02;;;;;;;9.90;5.90;;;12.70;99.90;;;;;;5124780;28;20455;-84
2022/07/17 05:11:30;;;;;;;8.17;5.07;;;12.70;99.90;;;;;;5124784;28;20463;-85
2022/07/17 05:13:59;;;;;;;7.73;5.17;;;12.70;99.90;;;;;;5123863;28;20479;-85
2022/07/17 05:16:27;;;;;;;8.50;4.80;;;12.80;99.90;;;;;;5125419;28;20505;-84
2022/07/17 05:18:56;;;;;;;9.00;5.80;;;12.80;99.90;;;;;;5123710;28;20458;-84
2022/07/17 05:21:24;;;;;;;8.80;5.77;;;12.80;99.90;;;;;;5123511;28;20504;-84
2022/07/17 05:23:54;;;;;;;8.33;5.10;;;12.90;99.90;;;;;;5123645;28;20446;-84
2022/07/17 05:26:22;;;;;;;6.10;5.10;;;12.90;99.90;;;;;;5123644;28;20458;-83
2022/07/17 05:28:51;;;;;;;7.03;5.47;;;13.00;99.90;;;;;;5123939;28;20449;-84
2022/07/17 05:31:19;;;;;;;7.70;5.43;;;13.00;99.90;;;;;;5123616;28;20530;-83
2022/07/17 05:33:47;;;;;;;9.30;5.30;;;13.00;99.90;;;;;;5123677;28;20474;-82
2022/07/17 05:36:16;;;;;;;7.87;4.77;;;13.10;99.90;;;;;;5121842;28;20466;-83
2022/07/17 05:38:44;;;;;;;5.70;5.03;;;13.10;99.90;;;;;;5123483;28;20500;-82
2022/07/17 05:41:14;;;;;;;7.73;4.77;;;13.20;99.90;;;;;;5123498;28;20435;-83
2022/07/17 05:43:42;;;;;;;7.90;4.80;;;13.20;99.90;;;;;;5122749;28;20462;-84
2022/07/17 05:46:11;;;;;;;10.17;5.47;;;13.30;99.90;;;;;;5124751;28;20419;-83
2022/07/17 05:48:39;;;;;;;6.70;4.83;;;13.30;99.90;;;;;;5123894;28;20954;-84
2022/07/17 05:51:07;;;;;;;7.67;4.53;;;13.40;99.90;;;;;;5122297;28;20478;-83
2022/07/17 05:53:41;;;;;;;13.40;4.40;;;13.50;99.90;;;;;;5123054;28;20936;-83
2022/07/17 05:56:09;;;;;;;8.20;4.67;;;13.60;99.90;;;;;;5122030;28;20506;-84
2022/07/17 05:58:39;;;;;;;6.80;5.30;;;13.80;99.90;;;;;;5122792;28;20494;-82
2022/07/17 06:01:07;;;;;;;6.80;4.57;;;14.00;99.90;;;;;;5121478;28;20458;-85
2022/07/17 06:03:36;;;;;;;9.00;4.40;;;14.10;99.90;;;;;;5122232;28;20500;-84
2022/07/17 06:06:04;;;;;;;9.50;4.50;;;14.30;99.90;;;;;;5124745;28;20985;-83
2022/07/17 06:08:32;;;;;;;8.43;4.03;;;14.40;99.90;;;;;;5156039;27;20414;-82
2022/07/17 06:11:01;;;;;;;6.13;3.80;;;14.50;99.90;;;;;;5122428;28;20534;-86
2022/07/17 06:13:29;;;;;;;6.80;4.30;;;14.60;99.90;;;;;;5122090;28;20495;-84
2022/07/17 06:15:59;;;;;;;7.67;3.73;;;14.70;99.90;;;;;;5122972;28;20441;-84
2022/07/17 06:18:28;;;;;;;6.57;3.50;;;14.80;99.90;;;;;;5121455;28;20467;-82
2022/07/17 06:20:56;;;;;;;6.90;3.70;;;14.80;99.90;;;;;;5120569;28;20462;-83
2022/07/17 06:23:25;;;;;;;5.77;3.80;;;14.80;99.90;;;;;;5120649;28;20478;-84
2022/07/17 06:25:53;;;;;;;7.50;4.23;;;14.90;99.90;;;;;;5121363;28;20457;-84
2022/07/17 06:28:21;;;;;;;6.10;4.30;;;15.00;99.90;;;;;;5122785;28;20443;-84
2022/07/17 06:30:50;;;;;;;5.67;3.40;;;15.00;99.90;;;;;;5121156;28;20823;-83
2022/07/17 06:33:19;;;;;;;7.30;4.00;;;15.20;99.90;;;;;;5120677;28;20466;-85
2022/07/17 06:35:48;;;;;;;9.03;3.50;;;15.50;99.90;;;;;;5120191;28;20534;-83
2022/07/17 06:38:16;;;;;;;7.83;3.50;;;15.80;99.90;;;;;;5119745;28;20506;-83
2022/07/17 06:40:44;;;;;;;5.10;3.67;;;16.20;99.90;;;;;;5121170;28;20521;-83
2022/07/17 06:43:12;;;;;;;8.57;3.47;;;16.50;99.90;;;;;;5120807;28;20441;-83
2022/07/17 06:45:41;;;;;;;4.93;2.90;;;16.70;99.90;;;;;;5122098;28;20417;-83
2022/07/17 06:48:09;;;;;;;4.43;3.00;;;16.80;99.90;;;;;;5120767;28;20414;-85
2022/07/17 06:50:39;;;;;;;5.00;3.37;;;17.00;99.90;;;;;;5120792;28;20422;-81
2022/07/17 06:53:08;;;;;;;5.77;2.73;;;17.20;99.90;;;;;;5119980;28;20444;-84
2022/07/17 06:55:36;;;;;;;6.77;2.73;;;17.40;99.90;;;;;;5120374;28;20514;-83
2022/07/17 06:58:05;;;;;;;5.07;3.37;;;17.70;99.90;;;;;;5120195;28;20467;-84
2022/07/17 07:00:33;;;;;;;6.30;2.70;;;17.90;99.90;;;;;;5120098;28;20448;-85
2022/07/17 07:03:02;;;;;;;7.80;2.80;;;18.10;99.90;;;;;;5120878;28;20489;-84
2022/07/17 07:05:30;;;;;;;5.50;2.67;;;18.20;99.90;;;;;;5118632;28;20435;-84
2022/07/17 07:08:00;;;;;;;6.90;3.10;;;18.30;99.90;;;;;;5119868;28;20213;-85
2022/07/17 07:10:28;;;;;;;5.77;2.50;;;18.30;99.90;;;;;;5123635;28;20459;-81
2022/07/17 07:12:57;;;;;;;6.90;2.57;;;18.30;99.90;;;;;;5127250;28;20474;-83
2022/07/17 07:15:25;;;;;;;3.73;2.30;;;18.50;99.90;;;;;;5126433;28;20932;-84
2022/07/17 07:17:54;;;;;;;5.17;2.00;;;18.60;99.90;;;;;;5124736;28;20463;-87
2022/07/17 07:20:23;;;;;;;3.50;1.80;;;18.80;99.90;;;;;;5122082;28;20500;-84
2022/07/17 07:22:51;;;;;;;7.30;2.30;;;18.90;99.90;;;;;;5122460;28;20463;-85
2022/07/17 07:25:25;;;;;;;6.70;2.00;;;19.00;99.90;;;;;;5121578;28;20461;-83
2022/07/17 07:27:54;;;;;;;4.80;2.07;;;19.10;99.90;;;;;;5120800;28;20509;-85
2022/07/17 07:30:22;;;;;;;4.50;2.17;;;19.20;99.90;;;;;;5120227;28;20443;-84
2022/07/17 07:32:51;;;;;;;2.63;1.50;;;19.40;99.90;;;;;;5122439;28;20455;-82
2022/07/17 07:35:19;;;;;;;6.07;2.40;;;19.50;99.90;;;;;;5119768;28;20458;-84
2022/07/17 07:37:48;;;;;;;4.47;1.50;;;19.60;99.90;;;;;;5120106;28;20471;-85
2022/07/17 07:40:16;;;;;;;4.40;2.23;;;19.50;99.70;;;;;;5124924;28;20450;-85
2022/07/17 07:42:46;;;;;;;6.10;2.00;;;19.50;99.60;;;;;;5121563;28;20482;-85
2022/07/17 07:45:14;;;;;;;5.60;2.03;;;19.40;99.30;;;;;;5120788;28;20464;-85
2022/07/17 07:47:44;;;;;;;2.90;1.57;;;19.30;99.20;;;;;;5120267;28;20447;-83
2022/07/17 07:50:13;;;;;;;5.17;1.97;;;19.30;99.10;;;;;;5120217;28;20448;-85
2022/07/17 07:52:42;;;;;;;3.87;1.80;;;19.20;99.00;;;;;;5120476;28;20470;-84
2022/07/17 07:55:11;;;;;;;5.03;1.67;;;19.20;99.00;;;;;;5119221;28;20489;-88
2022/07/17 08:01:49;;;;;;;5.70;2.00;;;19.10;98.90;;;;;;5122928;28;20446;-85
2022/07/17 08:04:18;;;;;;;5.07;1.60;;;19.20;98.90;;;;;;5123544;28;20458;-84
2022/07/17 08:06:46;;;;;;;7.53;2.07;;;19.10;98.70;;;;;;5120458;28;20443;-88
2022/07/17 08:09:14;;;;;;;7.20;1.97;;;19.20;98.70;;;;;;5117572;28;20554;-85
2022/07/17 08:11:43;;;;;;;5.77;1.90;;;19.40;98.90;;;;;;5119246;28;20455;-87
2022/07/17 08:14:11;;;;;;;4.63;1.50;;;19.50;98.90;;;;;;5118460;28;20482;-86
2022/07/17 08:16:44;;;;;;;4.17;1.80;;;19.60;98.70;;;;;;5117183;28;20446;-82
2022/07/17 08:19:14;;;;;;;4.80;1.70;;;19.80;98.80;;;;;;5117338;28;20443;-84
2022/07/17 08:21:42;;;;;;;3.50;1.50;;;20.00;98.50;;;;;;5116632;28;20979;-85
2022/07/17 08:24:11;;;;;;;4.47;2.00;;;20.10;98.30;;;;;;5115119;28;20498;-79
2022/07/17 08:26:39;;;;;;;4.20;2.13;;;20.10;98.20;;;;;;5116202;28;20432;-80
2022/07/17 08:29:07;;;;;;;2.53;1.20;;;20.20;98.10;;;;;;5115160;28;20439;-79
2022/07/17 08:31:35;;;;;;;4.27;1.70;;;20.30;97.90;;;;;;5114493;28;20505;-78
2022/07/17 08:34:04;;;;;;;5.63;1.90;;;20.30;97.70;;;;;;5116032;28;20925;-79
2022/07/17 08:36:33;;;;;;;5.57;1.70;;;20.20;97.70;;;;;;5116134;28;20838;-78
2022/07/17 08:39:02;;;;;;;4.93;1.90;;;20.20;97.60;;;;;;5115166;28;20976;-77
2022/07/17 08:41:36;;;;;;;4.47;1.63;;;20.20;97.40;;;;;;5116112;28;20489;-79
2022/07/17 08:44:05;;;;;;;3.70;2.03;;;20.20;97.30;;;;;;5115683;28;20491;-78
2022/07/17 08:46:36;;;;;;;2.77;1.80;;;20.20;97.40;;;;;;5116161;28;20829;-77
2022/07/17 08:49:05;;;;;;;3.30;1.90;;;20.20;97.40;;;;;;5116190;28;20424;-79
2022/07/17 08:51:35;;;;;;;4.60;1.67;;;20.30;97.30;;;;;;5115526;28;20557;-76
2022/07/17 08:54:09;;;;;;;3.60;1.70;;;20.50;97.10;;;;;;5115430;28;21028;-78
2022/07/17 08:56:38;;;;;;;5.97;1.60;;;20.60;97.10;;;;;;5115924;28;20451;-82
2022/07/17 08:59:06;;;;;;;3.27;1.43;;;20.80;97.10;;;;;;5115368;28;20532;-83
2022/07/17 09:01:35;;;;;;;5.63;1.40;;;20.90;97.00;;;;;;5115460;28;20529;-81
2022/07/17 09:04:06;;;;;;;2.30;1.10;;;21.10;96.90;;;;;;5117340;28;20920;-81
2022/07/17 09:06:37;;;;;;;4.03;1.30;;;21.20;96.60;;;;;;5115788;28;20443;-82
2022/07/17 09:09:07;;;;;;;4.03;1.90;;;21.20;96.30;;;;;;5115387;28;20517;-81
2022/07/17 09:11:47;;;;;;;9.33;2.20;;;21.30;96.20;;;;;;5116642;28;20470;-82
2022/07/17 09:14:15;;;;;;;5.10;1.40;;;21.40;96.00;;;;;;5114868;28;20794;-83
2022/07/17 09:16:52;;;;;;;3.83;1.50;;;21.50;96.20;;;;;;5116102;28;20500;-82
2022/07/17 09:19:31;;;;;;;3.67;1.20;;;21.50;96.00;;;;;;5115298;28;20459;-82
2022/07/17 09:22:09;;;;;;;5.93;3.10;;;21.60;95.90;;;;;;5118971;28;20833;-83
2022/07/17 09:24:46;;;;;;;5.20;1.90;;;21.60;95.80;;;;;;5117346;28;20443;-81
2022/07/17 09:27:18;;;;;;;5.70;1.60;;;21.70;95.70;;;;;;5117387;28;20954;-81
2022/07/17 09:29:55;;;;;;;2.77;1.40;;;21.80;95.70;;;;;;5115552;28;20804;-82
2022/07/17 09:32:27;;;;;;;3.77;1.50;;;21.80;95.50;;;;;;5115017;28;20474;-81
2022/07/17 09:34:58;;;;;;;2.70;1.40;;;22.00;95.50;;;;;;5116954;28;20451;-77
2022/07/17 09:37:29;;;;;;;4.47;1.63;;;22.00;95.30;;;;;;5118066;28;20468;-77
2022/07/17 09:39:58;;;;;;;3.63;1.50;;;22.10;95.10;;;;;;5116741;28;20439;-79
2022/07/17 09:42:29;;;;;;;3.03;1.03;;;22.20;95.10;;;;;;5118510;28;20459;-77
2022/07/17 09:45:03;;;;;;;3.43;1.63;;;22.20;94.90;;;;;;5117514;28;20504;-76
2022/07/17 09:47:34;;;;;;;3.43;1.40;;;22.20;94.60;;;;;;5119718;28;20884;-80
2022/07/17 09:50:04;;;;;;;2.73;1.50;;;22.30;94.50;;;;;;5121303;28;20420;-79
2022/07/17 09:52:36;;;;;;;2.60;1.43;;;22.30;94.40;;;;;;5121089;28;20447;-82
2022/07/17 09:55:06;;;;;;;3.40;1.50;;;22.40;94.20;;;;;;5119268;28;20885;-75
2022/07/17 09:57:56;;;;;;;4.47;1.73;;;22.40;94.20;;;;;;5118352;28;20836;-79
2022/07/17 10:00:24;;;;;;;5.10;1.60;;;22.40;94.00;;;;;;5119306;28;20822;-76
2022/07/17 10:02:53;;;;;;;3.13;1.47;;;22.40;93.90;;;;;;5118509;28;20459;-77
2022/07/17 10:05:22;;;;;;;3.10;1.30;;;22.50;94.00;;;;;;5118012;28;20442;-78
2022/07/17 10:07:51;;;;;;;6.27;1.80;;;22.50;94.00;;;;;;5118666;28;20451;-77
2022/07/17 10:10:21;;;;;;;3.00;1.30;;;22.60;94.00;;;;;;5116739;28;20439;-79
2022/07/17 10:12:51;;;;;;;2.63;1.33;;;22.70;93.90;;;;;;5117242;28;20501;-77
2022/07/17 10:15:24;;;;;;;5.50;1.80;;;22.80;93.80;;;;;;5116426;28;20451;-77
2022/07/17 10:18:03;;;;;;;3.80;1.60;;;22.80;93.60;;;;;;5121602;28;20420;-79
2022/07/17 10:20:32;;;;;;;3.53;1.53;;;22.80;93.40;;;;;;5120842;28;20912;-80
2022/07/17 10:23:12;;;;;;;3.83;1.70;;;22.80;93.40;;;;;;5119792;28;20463;-81
2022/07/17 10:25:42;;;;;;;3.30;1.00;;;22.90;93.40;;;;;;5118854;28;20447;-78
2022/07/17 10:28:12;;;;;;;6.23;1.67;;;22.90;93.30;;;;;;5117732;28;20488;-82
2022/07/17 10:30:46;;;;;;;3.47;1.80;;;22.90;93.00;;;;;;5119898;28;20424;-76
2022/07/17 10:33:17;;;;;;;3.83;1.50;;;23.00;92.80;;;;;;5115293;28;20485;-77
2022/07/17 10:35:48;;;;;;;3.27;1.63;;;23.00;92.80;;;;;;5115222;28;20865;-77
2022/07/17 10:38:18;;;;;;;2.63;1.33;;;23.00;92.90;;;;;;5118214;28;20524;-79
2022/07/17 10:40:59;;;;;;;2.40;1.50;;;23.00;92.90;;;;;;5117240;28;20443;-78
2022/07/17 10:43:27;;;;;;;3.63;1.83;;;23.00;92.80;;;;;;5118522;28;20471;-84
2022/07/17 10:45:56;;;;;;;2.47;1.40;;;23.10;92.70;;;;;;5122960;28;20416;-78
2022/07/17 10:48:24;;;;;;;4.90;1.77;;;23.20;92.60;;;;;;5115861;28;20505;-82
2022/07/17 10:50:55;;;;;;;4.30;2.10;;;23.20;92.60;;;;;;5116365;28;20530;-77
2022/07/17 10:53:27;;;;;;;2.90;1.60;;;23.30;92.60;;;;;;5117646;28;20478;-76
2022/07/17 10:55:57;;;;;;;5.73;1.67;;;23.30;92.60;;;;;;5116506;28;21005;-83
2022/07/17 10:58:27;;;;;;;15.03;2.43;;;23.30;92.50;;;;;;5115096;28;20545;-75
2022/07/17 11:01:00;;;;;;;3.97;1.57;;;23.30;92.90;;;;;;5116003;28;20527;-84
2022/07/17 11:03:29;;;;;;;4.03;1.80;;;23.40;92.60;;;;;;5118407;28;20509;-84
2022/07/17 11:06:07;;;;;;;4.37;2.07;;;23.40;92.50;;;;;;5119232;28;20427;-83
2022/07/17 11:08:42;;;;;;;5.30;1.93;;;23.50;92.80;;;;;;5126189;28;20442;-86
2022/07/17 11:11:11;;;;;;;3.47;1.50;;;23.50;92.40;;;;;;5129998;28;20445;-85
2022/07/17 11:13:47;;;;;;;5.00;1.90;;;23.40;92.30;;;;;;5130276;28;20483;-84
2022/07/17 11:16:28;;;;;;;5.30;1.93;;;23.40;92.30;;;;;;5131179;28;20470;-84
2022/07/17 11:18:58;;;;;;;4.83;1.43;;;23.40;92.10;;;;;;5129881;28;20558;-84
2022/07/17 11:21:27;;;;;;;4.33;1.50;;;23.40;92.10;;;;;;5131765;28;20444;-84
2022/07/17 11:23:57;;;;;;;2.93;1.47;;;23.50;92.10;;;;;;5119404;28;20456;-84
2022/07/17 11:26:26;;;;;;;5.33;1.60;;;23.50;92.20;;;;;;5119109;28;20929;-84
2022/07/17 11:28:58;;;;;;;1.90;1.23;;;23.60;92.10;;;;;;5121151;28;20515;-84
2022/07/17 11:31:30;;;;;;;5.30;1.97;;;23.60;91.90;;;;;;5119912;28;20515;-86
2022/07/17 11:34:01;;;;;;;3.20;1.63;;;23.70;92.00;;;;;;5118336;28;20439;-86
2022/07/17 11:36:32;;;;;;;6.27;1.83;;;23.70;92.00;;;;;;5118274;28;20507;-86
2022/07/17 11:39:10;;;;;;;3.53;1.53;;;23.80;92.00;;;;;;5119275;28;20495;-84
2022/07/17 11:41:41;;;;;;;8.37;2.10;;;23.80;91.80;;;;;;5119715;28;20470;-85
2022/07/17 11:44:11;;;;;;;3.00;1.90;;;23.70;91.60;;;;;;5117171;28;20858;-83
2022/07/17 11:46:48;;;;;;;2.90;1.60;;;23.80;91.60;;;;;;5119574;28;20492;-86
2022/07/17 11:49:27;;;;;;;2.90;1.30;;;23.80;91.50;;;;;;5118471;28;20816;-84
2022/07/17 11:51:58;;;;;;;3.07;1.70;;;23.80;91.40;;;;;;5118311;28;20474;-86
2022/07/17 11:54:29;;;;;;;5.10;1.47;;;23.80;91.40;;;;;;5118842;28;20555;-86
2022/07/17 11:57:01;;;;;;;2.83;1.50;;;23.80;91.40;;;;;;5119829;28;20440;-79
2022/07/17 11:59:35;;;;;;;3.60;1.70;;;23.90;91.50;;;;;;5122617;28;20447;-84
2022/07/17 12:13:45;;;;;;;;;;;;;;;;;;;;;
2022/07/17 12:32:25;;;;;;;3.10;1.70;;;24.00;90.50;;;;;;5001766;28;20469;-84
2022/07/17 12:45:06;;;;;;;;;;;;;;;;;;;;;
2022/07/17 13:16:34;;;;;;;3.30;1.53;;;24.60;90.00;;;;;;4834833;29;20470;-77
2022/07/17 13:19:02;;;;;;;4.70;2.27;;;24.60;90.00;;;;;;4882372;29;20984;-81
2022/07/17 13:21:33;;;;;;;3.10;1.43;;;24.60;90.10;;;;;;4938247;29;21001;-80
2022/07/17 13:24:05;;;;;;;3.33;1.93;;;24.60;89.80;;;;;;5034852;28;20947;-84
2022/07/17 13:26:34;;;;;;;2.90;1.53;;;24.60;89.60;;;;;;5078729;28;20476;-81
2022/07/17 13:29:03;;;;;;;2.40;1.50;;;24.60;89.10;;;;;;5078226;28;20513;-77
2022/07/17 13:31:31;;;;;;;12.57;2.70;;;24.60;88.60;;;;;;5076018;28;20488;-77
2022/07/17 13:35:13;;;;;;;2.87;1.73;;;24.70;88.50;;;;;;5078138;28;20437;-77
2022/07/17 13:38:49;;;;;;;8.70;2.40;;;24.70;88.00;;;;;;5078571;28;20528;-77
2022/07/17 13:41:22;;;;;;;3.90;1.60;;;24.70;87.60;;;;;;5057475;28;20547;-77
2022/07/17 13:58:42;;;;;;;2.97;1.93;;;24.80;87.60;;;;;;4858264;29;20972;-76
2022/07/17 14:12:52;;;;;;;3.00;1.67;;;24.80;87.50;;;;;;4978508;28;20473;-79
2022/07/17 14:15:20;;;;;;;2.80;1.73;;;24.90;87.60;;;;;;4977987;28;20532;-79
2022/07/17 14:17:48;;;;;;;3.40;1.70;;;25.00;87.40;;;;;;4979455;28;20946;-79
2022/07/17 14:20:16;;;;;;;2.53;1.60;;;25.00;87.30;;;;;;4993891;28;20470;-79
2022/07/17 14:22:45;;;;;;;2.07;1.60;;;25.10;87.30;;;;;;4977773;28;20537;-79
2022/07/17 14:25:13;;;;;;;2.90;1.93;;;25.20;87.40;;;;;;4978791;28;20968;-78
2022/07/17 14:27:41;;;;;;;3.30;1.80;;;25.20;87.50;;;;;;4979090;28;20457;-78
2022/07/17 14:30:12;;;;;;;4.03;1.87;;;25.20;87.30;;;;;;4975712;28;20510;-77
2022/07/17 14:32:40;;;;;;;3.50;1.70;;;25.30;87.00;;;;;;4977850;28;20466;-76
2022/07/17 14:35:09;;;;;;;3.50;1.90;;;25.30;86.70;;;;;;4976849;28;20450;-77
2022/07/17 14:37:38;;;;;;;2.60;1.60;;;25.30;86.70;;;;;;4976746;28;20533;-76
2022/07/17 14:40:12;;;;;;;2.77;1.60;;;25.30;86.60;;;;;;4976991;28;20461;-77